sensor_id;sensor_type;location;lat;lon;timestamp;P1;durP1;ratioP1;P2;durP2;ratioP2
52456;SDS011;38369;52.840;7.082;2023-04-25T00:00:26;18.25;;;5.93;;
52456;SDS011;38369;52.840;7.082;2023-04-25T00:02:52;20.75;;;6.40;;
52456;SDS011;38369;52.840;7.082;2023-04-25T00:05:18;25.98;;;6.05;;
52456;SDS011;38369;52.840;7.082;2023-04-25T00:07:44;22.33;;;5.35;;
52456;SDS011;38369;52.840;7.082;2023-04-25T00:10:11;22.48;;;7.22;;
52456;SDS011;38369;52.840;7.082;2023-04-25T00:12:37;17.80;;;5.43;;
52456;SDS011;38369;52.840;7.082;2023-04-25T00:15:04;23.48;;;5.38;;
52456;SDS011;38369;52.840;7.082;2023-04-25T00:17:30;21.92;;;5.50;;
52456;SDS011;38369;52.840;7.082;2023-04-25T00:19:56;22.63;;;6.35;;
52456;SDS011;38369;52.840;7.082;2023-04-25T00:22:23;24.90;;;5.50;;
52456;SDS011;38369;52.840;7.082;2023-04-25T00:24:49;17.25;;;4.93;;
52456;SDS011;38369;52.840;7.082;2023-04-25T00:27:15;15.38;;;5.78;;
52456;SDS011;38369;52.840;7.082;2023-04-25T00:29:41;19.85;;;5.65;;
52456;SDS011;38369;52.840;7.082;2023-04-25T00:32:07;19.25;;;5.65;;
52456;SDS011;38369;52.840;7.082;2023-04-25T00:34:33;19.42;;;5.20;;
52456;SDS011;38369;52.840;7.082;2023-04-25T00:36:59;9.88;;;4.28;;
52456;SDS011;38369;52.840;7.082;2023-04-25T00:39:27;22.70;;;5.30;;
52456;SDS011;38369;52.840;7.082;2023-04-25T00:41:54;14.55;;;4.28;;
52456;SDS011;38369;52.840;7.082;2023-04-25T00:44:20;14.55;;;5.72;;
52456;SDS011;38369;52.840;7.082;2023-04-25T00:46:47;14.55;;;4.85;;
52456;SDS011;38369;52.840;7.082;2023-04-25T00:49:14;19.95;;;5.43;;
52456;SDS011;38369;52.840;7.082;2023-04-25T00:51:42;17.75;;;5.32;;
52456;SDS011;38369;52.840;7.082;2023-04-25T00:54:10;16.48;;;4.75;;
52456;SDS011;38369;52.840;7.082;2023-04-25T00:56:36;18.92;;;5.05;;
52456;SDS011;38369;52.840;7.082;2023-04-25T00:59:03;17.98;;;5.00;;
52456;SDS011;38369;52.840;7.082;2023-04-25T01:01:29;17.17;;;4.68;;
52456;SDS011;38369;52.840;7.082;2023-04-25T01:03:56;17.38;;;5.25;;
52456;SDS011;38369;52.840;7.082;2023-04-25T01:06:23;21.38;;;5.22;;
52456;SDS011;38369;52.840;7.082;2023-04-25T01:08:49;26.77;;;6.22;;
52456;SDS011;38369;52.840;7.082;2023-04-25T01:11:16;18.70;;;5.68;;
52456;SDS011;38369;52.840;7.082;2023-04-25T01:13:42;21.80;;;6.55;;
52456;SDS011;38369;52.840;7.082;2023-04-25T01:16:08;18.48;;;5.82;;
52456;SDS011;38369;52.840;7.082;2023-04-25T01:18:36;22.60;;;6.00;;
52456;SDS011;38369;52.840;7.082;2023-04-25T01:21:09;19.80;;;6.22;;
52456;SDS011;38369;52.840;7.082;2023-04-25T01:23:36;17.35;;;5.53;;
52456;SDS011;38369;52.840;7.082;2023-04-25T01:26:03;17.27;;;5.30;;
52456;SDS011;38369;52.840;7.082;2023-04-25T01:28:29;19.13;;;5.93;;
52456;SDS011;38369;52.840;7.082;2023-04-25T01:30:56;13.07;;;4.68;;
52456;SDS011;38369;52.840;7.082;2023-04-25T01:33:22;19.92;;;5.20;;
52456;SDS011;38369;52.840;7.082;2023-04-25T01:35:48;19.20;;;5.50;;
52456;SDS011;38369;52.840;7.082;2023-04-25T01:38:14;21.63;;;5.50;;
52456;SDS011;38369;52.840;7.082;2023-04-25T01:40:40;18.70;;;5.13;;
52456;SDS011;38369;52.840;7.082;2023-04-25T01:43:07;17.25;;;5.95;;
52456;SDS011;38369;52.840;7.082;2023-04-25T01:45:36;22.25;;;5.13;;
52456;SDS011;38369;52.840;7.082;2023-04-25T01:48:05;26.30;;;6.75;;
52456;SDS011;38369;52.840;7.082;2023-04-25T01:50:31;22.75;;;5.90;;
52456;SDS011;38369;52.840;7.082;2023-04-25T01:52:57;23.63;;;5.55;;
52456;SDS011;38369;52.840;7.082;2023-04-25T01:55:23;18.58;;;5.55;;
52456;SDS011;38369;52.840;7.082;2023-04-25T01:57:49;18.88;;;5.35;;
52456;SDS011;38369;52.840;7.082;2023-04-25T02:00:15;17.42;;;7.03;;
52456;SDS011;38369;52.840;7.082;2023-04-25T02:02:41;26.75;;;6.25;;
52456;SDS011;38369;52.840;7.082;2023-04-25T02:05:07;16.42;;;4.80;;
52456;SDS011;38369;52.840;7.082;2023-04-25T02:07:34;21.88;;;5.38;;
52456;SDS011;38369;52.840;7.082;2023-04-25T02:10:00;20.00;;;6.72;;
52456;SDS011;38369;52.840;7.082;2023-04-25T02:12:27;20.10;;;5.63;;
52456;SDS011;38369;52.840;7.082;2023-04-25T02:14:53;17.88;;;5.72;;
52456;SDS011;38369;52.840;7.082;2023-04-25T02:17:19;15.70;;;4.95;;
52456;SDS011;38369;52.840;7.082;2023-04-25T02:19:46;15.20;;;4.75;;
52456;SDS011;38369;52.840;7.082;2023-04-25T02:22:12;15.07;;;5.43;;
52456;SDS011;38369;52.840;7.082;2023-04-25T02:24:39;22.75;;;6.05;;
52456;SDS011;38369;52.840;7.082;2023-04-25T02:27:05;17.85;;;6.22;;
52456;SDS011;38369;52.840;7.082;2023-04-25T02:29:31;14.15;;;5.90;;
52456;SDS011;38369;52.840;7.082;2023-04-25T02:31:57;20.17;;;6.00;;
52456;SDS011;38369;52.840;7.082;2023-04-25T02:34:23;20.80;;;6.97;;
52456;SDS011;38369;52.840;7.082;2023-04-25T02:36:49;21.40;;;7.32;;
52456;SDS011;38369;52.840;7.082;2023-04-25T02:39:16;22.98;;;6.32;;
52456;SDS011;38369;52.840;7.082;2023-04-25T02:41:42;28.77;;;7.88;;
52456;SDS011;38369;52.840;7.082;2023-04-25T02:44:08;19.13;;;6.30;;
52456;SDS011;38369;52.840;7.082;2023-04-25T02:46:34;24.48;;;6.63;;
52456;SDS011;38369;52.840;7.082;2023-04-25T02:49:00;22.58;;;7.00;;
52456;SDS011;38369;52.840;7.082;2023-04-25T02:51:26;15.35;;;6.60;;
52456;SDS011;38369;52.840;7.082;2023-04-25T02:53:52;18.13;;;6.07;;
52456;SDS011;38369;52.840;7.082;2023-04-25T02:56:19;22.67;;;5.57;;
52456;SDS011;38369;52.840;7.082;2023-04-25T02:58:45;18.85;;;5.93;;
52456;SDS011;38369;52.840;7.082;2023-04-25T03:01:11;19.90;;;5.20;;
52456;SDS011;38369;52.840;7.082;2023-04-25T03:03:37;19.83;;;6.13;;
52456;SDS011;38369;52.840;7.082;2023-04-25T03:06:03;18.50;;;5.88;;
52456;SDS011;38369;52.840;7.082;2023-04-25T03:08:29;20.63;;;6.07;;
52456;SDS011;38369;52.840;7.082;2023-04-25T03:10:57;23.35;;;5.35;;
52456;SDS011;38369;52.840;7.082;2023-04-25T03:13:24;19.00;;;5.38;;
52456;SDS011;38369;52.840;7.082;2023-04-25T03:15:50;18.63;;;5.55;;
52456;SDS011;38369;52.840;7.082;2023-04-25T03:18:16;26.85;;;6.10;;
52456;SDS011;38369;52.840;7.082;2023-04-25T03:20:42;15.57;;;5.15;;
52456;SDS011;38369;52.840;7.082;2023-04-25T03:23:08;17.90;;;6.30;;
52456;SDS011;38369;52.840;7.082;2023-04-25T03:25:35;18.85;;;4.78;;
52456;SDS011;38369;52.840;7.082;2023-04-25T03:28:01;18.52;;;4.75;;
52456;SDS011;38369;52.840;7.082;2023-04-25T03:30:27;26.85;;;6.32;;
52456;SDS011;38369;52.840;7.082;2023-04-25T03:32:53;29.80;;;7.57;;
52456;SDS011;38369;52.840;7.082;2023-04-25T03:35:19;12.45;;;4.00;;
52456;SDS011;38369;52.840;7.082;2023-04-25T03:37:45;18.45;;;4.97;;
52456;SDS011;38369;52.840;7.082;2023-04-25T03:40:11;15.48;;;4.90;;
52456;SDS011;38369;52.840;7.082;2023-04-25T03:42:37;17.90;;;5.97;;
52456;SDS011;38369;52.840;7.082;2023-04-25T03:45:03;19.55;;;4.57;;
52456;SDS011;38369;52.840;7.082;2023-04-25T03:47:29;25.10;;;4.80;;
52456;SDS011;38369;52.840;7.082;2023-04-25T03:49:55;23.80;;;5.30;;
52456;SDS011;38369;52.840;7.082;2023-04-25T03:52:22;17.85;;;4.57;;
52456;SDS011;38369;52.840;7.082;2023-04-25T03:54:48;27.02;;;5.57;;
52456;SDS011;38369;52.840;7.082;2023-04-25T03:57:14;25.40;;;5.90;;
52456;SDS011;38369;52.840;7.082;2023-04-25T03:59:40;22.48;;;6.15;;
52456;SDS011;38369;52.840;7.082;2023-04-25T04:02:06;19.23;;;5.18;;
52456;SDS011;38369;52.840;7.082;2023-04-25T04:04:32;21.23;;;4.90;;
52456;SDS011;38369;52.840;7.082;2023-04-25T04:06:58;13.18;;;3.95;;
52456;SDS011;38369;52.840;7.082;2023-04-25T04:09:24;18.35;;;5.80;;
52456;SDS011;38369;52.840;7.082;2023-04-25T04:11:51;16.15;;;4.35;;
52456;SDS011;38369;52.840;7.082;2023-04-25T04:14:17;19.75;;;4.38;;
52456;SDS011;38369;52.840;7.082;2023-04-25T04:16:43;15.00;;;4.18;;
52456;SDS011;38369;52.840;7.082;2023-04-25T04:19:09;23.40;;;5.88;;
52456;SDS011;38369;52.840;7.082;2023-04-25T04:21:35;21.42;;;5.68;;
52456;SDS011;38369;52.840;7.082;2023-04-25T04:24:02;23.58;;;5.57;;
52456;SDS011;38369;52.840;7.082;2023-04-25T04:26:28;14.02;;;4.97;;
52456;SDS011;38369;52.840;7.082;2023-04-25T04:28:56;29.52;;;4.80;;
52456;SDS011;38369;52.840;7.082;2023-04-25T04:31:24;17.60;;;4.18;;
52456;SDS011;38369;52.840;7.082;2023-04-25T04:33:50;15.15;;;4.43;;
52456;SDS011;38369;52.840;7.082;2023-04-25T04:36:16;18.17;;;4.32;;
52456;SDS011;38369;52.840;7.082;2023-04-25T04:38:46;14.95;;;5.35;;
52456;SDS011;38369;52.840;7.082;2023-04-25T04:41:12;21.70;;;4.25;;
52456;SDS011;38369;52.840;7.082;2023-04-25T04:43:38;16.42;;;4.45;;
52456;SDS011;38369;52.840;7.082;2023-04-25T04:46:05;18.15;;;5.10;;
52456;SDS011;38369;52.840;7.082;2023-04-25T04:48:31;14.75;;;4.45;;
52456;SDS011;38369;52.840;7.082;2023-04-25T04:50:59;18.90;;;4.15;;
52456;SDS011;38369;52.840;7.082;2023-04-25T04:53:25;13.82;;;4.25;;
52456;SDS011;38369;52.840;7.082;2023-04-25T04:55:51;20.55;;;4.60;;
52456;SDS011;38369;52.840;7.082;2023-04-25T04:58:17;14.93;;;3.70;;
52456;SDS011;38369;52.840;7.082;2023-04-25T05:00:44;15.90;;;3.83;;
52456;SDS011;38369;52.840;7.082;2023-04-25T05:03:10;17.45;;;5.03;;
52456;SDS011;38369;52.840;7.082;2023-04-25T05:05:36;24.85;;;5.05;;
52456;SDS011;38369;52.840;7.082;2023-04-25T05:08:05;16.00;;;4.80;;
52456;SDS011;38369;52.840;7.082;2023-04-25T05:10:31;13.32;;;4.47;;
52456;SDS011;38369;52.840;7.082;2023-04-25T05:12:57;12.20;;;3.60;;
52456;SDS011;38369;52.840;7.082;2023-04-25T05:15:23;10.50;;;3.63;;
52456;SDS011;38369;52.840;7.082;2023-04-25T05:17:49;17.92;;;4.65;;
52456;SDS011;38369;52.840;7.082;2023-04-25T05:20:15;14.15;;;3.90;;
52456;SDS011;38369;52.840;7.082;2023-04-25T05:22:44;11.50;;;3.40;;
52456;SDS011;38369;52.840;7.082;2023-04-25T05:25:10;8.68;;;3.15;;
52456;SDS011;38369;52.840;7.082;2023-04-25T05:27:36;6.15;;;3.00;;
52456;SDS011;38369;52.840;7.082;2023-04-25T05:30:02;11.63;;;3.00;;
52456;SDS011;38369;52.840;7.082;2023-04-25T05:32:29;8.13;;;2.88;;
52456;SDS011;38369;52.840;7.082;2023-04-25T05:34:55;14.45;;;3.40;;
52456;SDS011;38369;52.840;7.082;2023-04-25T05:37:21;13.35;;;3.05;;
52456;SDS011;38369;52.840;7.082;2023-04-25T05:39:47;13.00;;;2.85;;
52456;SDS011;38369;52.840;7.082;2023-04-25T05:42:13;6.93;;;2.33;;
52456;SDS011;38369;52.840;7.082;2023-04-25T05:44:39;12.52;;;2.90;;
52456;SDS011;38369;52.840;7.082;2023-04-25T05:47:05;12.65;;;3.28;;
52456;SDS011;38369;52.840;7.082;2023-04-25T05:49:31;6.65;;;3.05;;
52456;SDS011;38369;52.840;7.082;2023-04-25T05:51:58;15.05;;;2.78;;
52456;SDS011;38369;52.840;7.082;2023-04-25T05:54:24;12.55;;;4.38;;
52456;SDS011;38369;52.840;7.082;2023-04-25T05:56:50;17.65;;;4.25;;
52456;SDS011;38369;52.840;7.082;2023-04-25T05:59:16;12.05;;;3.22;;
52456;SDS011;38369;52.840;7.082;2023-04-25T06:01:42;10.13;;;2.88;;
52456;SDS011;38369;52.840;7.082;2023-04-25T06:04:08;8.50;;;2.42;;
52456;SDS011;38369;52.840;7.082;2023-04-25T06:06:34;18.08;;;3.97;;
52456;SDS011;38369;52.840;7.082;2023-04-25T06:09:00;11.48;;;3.25;;
52456;SDS011;38369;52.840;7.082;2023-04-25T06:11:26;14.23;;;3.55;;
52456;SDS011;38369;52.840;7.082;2023-04-25T06:13:52;8.60;;;2.97;;
52456;SDS011;38369;52.840;7.082;2023-04-25T06:16:19;13.18;;;3.13;;
52456;SDS011;38369;52.840;7.082;2023-04-25T06:18:45;9.27;;;2.28;;
52456;SDS011;38369;52.840;7.082;2023-04-25T06:21:11;13.52;;;3.38;;
52456;SDS011;38369;52.840;7.082;2023-04-25T06:23:37;7.97;;;2.22;;
52456;SDS011;38369;52.840;7.082;2023-04-25T06:26:03;10.32;;;3.28;;
52456;SDS011;38369;52.840;7.082;2023-04-25T06:28:29;17.20;;;3.47;;
52456;SDS011;38369;52.840;7.082;2023-04-25T06:30:55;9.68;;;3.30;;
52456;SDS011;38369;52.840;7.082;2023-04-25T06:33:21;16.00;;;3.03;;
52456;SDS011;38369;52.840;7.082;2023-04-25T06:35:49;13.20;;;3.25;;
52456;SDS011;38369;52.840;7.082;2023-04-25T06:38:15;6.70;;;2.50;;
52456;SDS011;38369;52.840;7.082;2023-04-25T06:40:41;13.63;;;3.25;;
52456;SDS011;38369;52.840;7.082;2023-04-25T06:43:07;13.35;;;3.25;;
52456;SDS011;38369;52.840;7.082;2023-04-25T06:45:33;13.50;;;3.88;;
52456;SDS011;38369;52.840;7.082;2023-04-25T06:47:59;20.65;;;4.53;;
52456;SDS011;38369;52.840;7.082;2023-04-25T06:50:25;9.02;;;3.13;;
52456;SDS011;38369;52.840;7.082;2023-04-25T06:52:51;9.93;;;3.60;;
52456;SDS011;38369;52.840;7.082;2023-04-25T06:55:18;9.05;;;2.67;;
52456;SDS011;38369;52.840;7.082;2023-04-25T06:57:44;8.20;;;2.50;;
52456;SDS011;38369;52.840;7.082;2023-04-25T07:00:10;16.15;;;3.00;;
52456;SDS011;38369;52.840;7.082;2023-04-25T07:02:36;8.20;;;2.83;;
52456;SDS011;38369;52.840;7.082;2023-04-25T07:05:03;15.68;;;3.25;;
52456;SDS011;38369;52.840;7.082;2023-04-25T07:07:32;10.48;;;2.67;;
52456;SDS011;38369;52.840;7.082;2023-04-25T07:09:58;5.70;;;2.35;;
52456;SDS011;38369;52.840;7.082;2023-04-25T07:12:24;16.58;;;3.22;;
52456;SDS011;38369;52.840;7.082;2023-04-25T07:14:50;10.18;;;2.30;;
52456;SDS011;38369;52.840;7.082;2023-04-25T07:17:16;11.80;;;2.45;;
52456;SDS011;38369;52.840;7.082;2023-04-25T07:19:42;8.75;;;2.97;;
52456;SDS011;38369;52.840;7.082;2023-04-25T07:22:08;10.02;;;3.10;;
52456;SDS011;38369;52.840;7.082;2023-04-25T07:24:35;10.43;;;2.88;;
52456;SDS011;38369;52.840;7.082;2023-04-25T07:27:01;11.43;;;3.00;;
52456;SDS011;38369;52.840;7.082;2023-04-25T07:29:27;11.20;;;2.83;;
52456;SDS011;38369;52.840;7.082;2023-04-25T07:31:55;10.65;;;2.67;;
52456;SDS011;38369;52.840;7.082;2023-04-25T07:34:21;9.07;;;3.45;;
52456;SDS011;38369;52.840;7.082;2023-04-25T07:36:47;12.57;;;3.38;;
52456;SDS011;38369;52.840;7.082;2023-04-25T07:39:13;12.35;;;3.03;;
52456;SDS011;38369;52.840;7.082;2023-04-25T07:41:39;10.20;;;2.55;;
52456;SDS011;38369;52.840;7.082;2023-04-25T07:44:05;12.77;;;2.63;;
52456;SDS011;38369;52.840;7.082;2023-04-25T07:46:31;10.70;;;2.72;;
52456;SDS011;38369;52.840;7.082;2023-04-25T07:48:57;11.73;;;2.58;;
52456;SDS011;38369;52.840;7.082;2023-04-25T07:51:23;12.30;;;2.55;;
52456;SDS011;38369;52.840;7.082;2023-04-25T07:53:50;10.40;;;2.50;;
52456;SDS011;38369;52.840;7.082;2023-04-25T07:56:16;13.32;;;2.80;;
52456;SDS011;38369;52.840;7.082;2023-04-25T07:58:42;6.57;;;2.03;;
52456;SDS011;38369;52.840;7.082;2023-04-25T08:01:09;9.63;;;1.98;;
52456;SDS011;38369;52.840;7.082;2023-04-25T08:03:35;9.05;;;2.25;;
52456;SDS011;38369;52.840;7.082;2023-04-25T08:06:01;8.68;;;1.80;;
52456;SDS011;38369;52.840;7.082;2023-04-25T08:08:27;9.40;;;2.40;;
52456;SDS011;38369;52.840;7.082;2023-04-25T08:10:53;5.50;;;1.83;;
52456;SDS011;38369;52.840;7.082;2023-04-25T08:13:19;6.88;;;2.13;;
52456;SDS011;38369;52.840;7.082;2023-04-25T08:15:45;6.00;;;1.42;;
52456;SDS011;38369;52.840;7.082;2023-04-25T08:18:11;3.08;;;1.20;;
52456;SDS011;38369;52.840;7.082;2023-04-25T08:20:38;5.28;;;1.20;;
52456;SDS011;38369;52.840;7.082;2023-04-25T08:23:04;4.07;;;1.90;;
52456;SDS011;38369;52.840;7.082;2023-04-25T08:25:30;8.80;;;2.03;;
52456;SDS011;38369;52.840;7.082;2023-04-25T08:27:56;11.98;;;2.50;;
52456;SDS011;38369;52.840;7.082;2023-04-25T08:30:24;8.60;;;2.25;;
52456;SDS011;38369;52.840;7.082;2023-04-25T08:32:50;8.90;;;2.42;;
52456;SDS011;38369;52.840;7.082;2023-04-25T08:35:16;10.93;;;2.58;;
52456;SDS011;38369;52.840;7.082;2023-04-25T08:37:42;5.53;;;1.80;;
52456;SDS011;38369;52.840;7.082;2023-04-25T08:40:11;8.77;;;2.22;;
52456;SDS011;38369;52.840;7.082;2023-04-25T08:42:38;4.22;;;1.70;;
52456;SDS011;38369;52.840;7.082;2023-04-25T08:45:08;4.65;;;1.67;;
52456;SDS011;38369;52.840;7.082;2023-04-25T08:47:34;8.15;;;2.20;;
52456;SDS011;38369;52.840;7.082;2023-04-25T08:50:01;10.57;;;2.20;;
52456;SDS011;38369;52.840;7.082;2023-04-25T08:52:29;4.30;;;1.60;;
52456;SDS011;38369;52.840;7.082;2023-04-25T08:54:56;7.32;;;1.80;;
52456;SDS011;38369;52.840;7.082;2023-04-25T08:57:23;4.38;;;1.42;;
52456;SDS011;38369;52.840;7.082;2023-04-25T08:59:49;6.85;;;1.70;;
52456;SDS011;38369;52.840;7.082;2023-04-25T09:02:15;8.93;;;1.73;;
52456;SDS011;38369;52.840;7.082;2023-04-25T09:04:43;5.80;;;1.52;;
52456;SDS011;38369;52.840;7.082;2023-04-25T09:07:09;8.93;;;1.88;;
52456;SDS011;38369;52.840;7.082;2023-04-25T09:09:35;9.20;;;1.67;;
52456;SDS011;38369;52.840;7.082;2023-04-25T09:12:01;4.78;;;1.35;;
52456;SDS011;38369;52.840;7.082;2023-04-25T09:14:27;8.40;;;1.75;;
52456;SDS011;38369;52.840;7.082;2023-04-25T09:19:25;7.03;;;1.70;;
52456;SDS011;38369;52.840;7.082;2023-04-25T09:21:55;12.07;;;2.03;;
52456;SDS011;38369;52.840;7.082;2023-04-25T09:27:03;7.80;;;1.70;;
52456;SDS011;38369;52.840;7.082;2023-04-25T09:29:30;4.35;;;1.33;;
52456;SDS011;38369;52.840;7.082;2023-04-25T09:32:16;7.20;;;1.77;;
52456;SDS011;38369;52.840;7.082;2023-04-25T09:34:43;6.15;;;1.42;;
52456;SDS011;38369;52.840;7.082;2023-04-25T09:37:10;4.72;;;1.60;;
52456;SDS011;38369;52.840;7.082;2023-04-25T09:39:39;5.93;;;1.33;;
52456;SDS011;38369;52.840;7.082;2023-04-25T09:42:05;7.43;;;2.28;;
52456;SDS011;38369;52.840;7.082;2023-04-25T09:44:31;8.02;;;1.60;;
52456;SDS011;38369;52.840;7.082;2023-04-25T09:46:57;6.25;;;1.30;;
52456;SDS011;38369;52.840;7.082;2023-04-25T09:49:24;4.95;;;1.30;;
52456;SDS011;38369;52.840;7.082;2023-04-25T09:51:56;3.92;;;1.30;;
52456;SDS011;38369;52.840;7.082;2023-04-25T09:54:25;7.88;;;1.63;;
52456;SDS011;38369;52.840;7.082;2023-04-25T09:56:52;8.93;;;1.58;;
52456;SDS011;38369;52.840;7.082;2023-04-25T09:59:21;5.88;;;1.60;;
52456;SDS011;38369;52.840;7.082;2023-04-25T10:01:48;4.25;;;1.13;;
52456;SDS011;38369;52.840;7.082;2023-04-25T10:04:19;3.42;;;1.25;;
52456;SDS011;38369;52.840;7.082;2023-04-25T10:06:48;3.78;;;1.30;;
52456;SDS011;38369;52.840;7.082;2023-04-25T10:09:15;6.50;;;1.40;;
52456;SDS011;38369;52.840;7.082;2023-04-25T10:11:45;4.78;;;1.13;;
52456;SDS011;38369;52.840;7.082;2023-04-25T10:14:13;2.30;;;1.15;;
52456;SDS011;38369;52.840;7.082;2023-04-25T10:16:40;5.72;;;1.65;;
52456;SDS011;38369;52.840;7.082;2023-04-25T10:19:07;5.18;;;1.60;;
52456;SDS011;38369;52.840;7.082;2023-04-25T10:21:34;6.97;;;1.90;;
52456;SDS011;38369;52.840;7.082;2023-04-25T10:24:01;7.30;;;1.67;;
52456;SDS011;38369;52.840;7.082;2023-04-25T10:26:27;7.68;;;1.40;;
52456;SDS011;38369;52.840;7.082;2023-04-25T10:29:00;9.95;;;1.40;;
52456;SDS011;38369;52.840;7.082;2023-04-25T10:31:27;5.18;;;1.42;;
52456;SDS011;38369;52.840;7.082;2023-04-25T10:33:53;7.85;;;1.75;;
52456;SDS011;38369;52.840;7.082;2023-04-25T10:36:23;4.47;;;1.33;;
52456;SDS011;38369;52.840;7.082;2023-04-25T10:38:52;6.85;;;2.72;;
52456;SDS011;38369;52.840;7.082;2023-04-25T10:41:20;8.80;;;1.52;;
52456;SDS011;38369;52.840;7.082;2023-04-25T10:43:46;12.30;;;1.60;;
52456;SDS011;38369;52.840;7.082;2023-04-25T10:46:26;5.20;;;0.95;;
52456;SDS011;38369;52.840;7.082;2023-04-25T10:48:53;5.67;;;1.17;;
52456;SDS011;38369;52.840;7.082;2023-04-25T10:51:23;4.10;;;1.23;;
52456;SDS011;38369;52.840;7.082;2023-04-25T10:56:19;3.50;;;1.67;;
52456;SDS011;38369;52.840;7.082;2023-04-25T10:58:46;6.90;;;1.38;;
52456;SDS011;38369;52.840;7.082;2023-04-25T11:01:13;3.13;;;1.60;;
52456;SDS011;38369;52.840;7.082;2023-04-25T11:03:40;9.88;;;2.03;;
52456;SDS011;38369;52.840;7.082;2023-04-25T11:06:10;4.10;;;1.30;;
52456;SDS011;38369;52.840;7.082;2023-04-25T11:08:45;4.47;;;1.63;;
52456;SDS011;38369;52.840;7.082;2023-04-25T11:11:13;5.05;;;1.70;;
52456;SDS011;38369;52.840;7.082;2023-04-25T11:13:39;6.22;;;1.27;;
52456;SDS011;38369;52.840;7.082;2023-04-25T11:16:09;5.05;;;1.40;;
52456;SDS011;38369;52.840;7.082;2023-04-25T11:18:35;3.50;;;1.45;;
52456;SDS011;38369;52.840;7.082;2023-04-25T11:21:02;5.60;;;1.50;;
52456;SDS011;38369;52.840;7.082;2023-04-25T11:23:29;6.07;;;1.40;;
52456;SDS011;38369;52.840;7.082;2023-04-25T11:25:55;8.77;;;1.80;;
52456;SDS011;38369;52.840;7.082;2023-04-25T11:28:22;6.18;;;1.40;;
52456;SDS011;38369;52.840;7.082;2023-04-25T11:30:49;4.25;;;1.20;;
52456;SDS011;38369;52.840;7.082;2023-04-25T11:33:15;6.45;;;2.20;;
52456;SDS011;38369;52.840;7.082;2023-04-25T11:35:41;5.05;;;1.63;;
52456;SDS011;38369;52.840;7.082;2023-04-25T11:38:08;6.97;;;1.45;;
52456;SDS011;38369;52.840;7.082;2023-04-25T11:40:35;7.95;;;1.73;;
52456;SDS011;38369;52.840;7.082;2023-04-25T11:43:01;10.95;;;2.22;;
52456;SDS011;38369;52.840;7.082;2023-04-25T11:45:27;7.20;;;1.88;;
52456;SDS011;38369;52.840;7.082;2023-04-25T11:47:55;5.85;;;1.80;;
52456;SDS011;38369;52.840;7.082;2023-04-25T11:50:21;6.60;;;1.60;;
52456;SDS011;38369;52.840;7.082;2023-04-25T11:52:47;6.38;;;1.83;;
52456;SDS011;38369;52.840;7.082;2023-04-25T11:55:18;8.85;;;1.88;;
52456;SDS011;38369;52.840;7.082;2023-04-25T11:57:45;9.10;;;1.88;;
52456;SDS011;38369;52.840;7.082;2023-04-25T12:00:12;5.57;;;1.50;;
52456;SDS011;38369;52.840;7.082;2023-04-25T12:02:42;8.60;;;1.95;;
52456;SDS011;38369;52.840;7.082;2023-04-25T12:05:09;5.70;;;1.70;;
52456;SDS011;38369;52.840;7.082;2023-04-25T12:07:36;4.97;;;1.50;;
52456;SDS011;38369;52.840;7.082;2023-04-25T12:12:36;5.22;;;1.58;;
52456;SDS011;38369;52.840;7.082;2023-04-25T12:15:12;6.13;;;1.55;;
52456;SDS011;38369;52.840;7.082;2023-04-25T12:17:40;7.72;;;2.45;;
52456;SDS011;38369;52.840;7.082;2023-04-25T12:20:10;8.15;;;1.50;;
52456;SDS011;38369;52.840;7.082;2023-04-25T12:22:37;2.55;;;1.15;;
52456;SDS011;38369;52.840;7.082;2023-04-25T12:25:03;6.35;;;1.70;;
52456;SDS011;38369;52.840;7.082;2023-04-25T12:27:33;4.05;;;1.33;;
52456;SDS011;38369;52.840;7.082;2023-04-25T12:29:59;3.10;;;1.20;;
52456;SDS011;38369;52.840;7.082;2023-04-25T12:32:25;8.00;;;1.85;;
52456;SDS011;38369;52.840;7.082;2023-04-25T12:34:52;9.07;;;2.15;;
52456;SDS011;38369;52.840;7.082;2023-04-25T12:37:18;6.22;;;1.40;;
52456;SDS011;38369;52.840;7.082;2023-04-25T12:39:44;10.23;;;2.42;;
52456;SDS011;38369;52.840;7.082;2023-04-25T12:42:11;6.90;;;1.42;;
52456;SDS011;38369;52.840;7.082;2023-04-25T12:44:37;6.40;;;2.05;;
52456;SDS011;38369;52.840;7.082;2023-04-25T12:47:03;5.13;;;1.70;;
52456;SDS011;38369;52.840;7.082;2023-04-25T12:49:30;3.55;;;1.30;;
52456;SDS011;38369;52.840;7.082;2023-04-25T12:51:57;11.15;;;2.10;;
52456;SDS011;38369;52.840;7.082;2023-04-25T12:54:23;6.30;;;1.73;;
52456;SDS011;38369;52.840;7.082;2023-04-25T12:56:50;7.82;;;1.67;;
52456;SDS011;38369;52.840;7.082;2023-04-25T12:59:16;8.80;;;2.83;;
52456;SDS011;38369;52.840;7.082;2023-04-25T13:01:43;4.25;;;1.60;;
52456;SDS011;38369;52.840;7.082;2023-04-25T13:04:10;9.05;;;1.90;;
52456;SDS011;38369;52.840;7.082;2023-04-25T13:06:36;6.05;;;1.50;;
52456;SDS011;38369;52.840;7.082;2023-04-25T13:09:02;4.00;;;1.50;;
52456;SDS011;38369;52.840;7.082;2023-04-25T13:11:29;7.38;;;1.35;;
52456;SDS011;38369;52.840;7.082;2023-04-25T13:13:55;7.25;;;1.50;;
52456;SDS011;38369;52.840;7.082;2023-04-25T13:16:21;6.78;;;1.73;;
52456;SDS011;38369;52.840;7.082;2023-04-25T13:18:48;5.03;;;1.17;;
52456;SDS011;38369;52.840;7.082;2023-04-25T13:21:14;4.30;;;1.15;;
52456;SDS011;38369;52.840;7.082;2023-04-25T13:23:40;5.57;;;1.83;;
52456;SDS011;38369;52.840;7.082;2023-04-25T13:26:07;6.10;;;1.50;;
52456;SDS011;38369;52.840;7.082;2023-04-25T13:28:34;10.43;;;2.38;;
52456;SDS011;38369;52.840;7.082;2023-04-25T13:31:00;9.70;;;1.95;;
52456;SDS011;38369;52.840;7.082;2023-04-25T13:33:26;4.35;;;1.27;;
52456;SDS011;38369;52.840;7.082;2023-04-25T13:35:52;7.00;;;2.90;;
52456;SDS011;38369;52.840;7.082;2023-04-25T13:38:23;4.50;;;1.63;;
52456;SDS011;38369;52.840;7.082;2023-04-25T13:40:50;10.23;;;1.65;;
52456;SDS011;38369;52.840;7.082;2023-04-25T13:43:21;5.32;;;1.42;;
52456;SDS011;38369;52.840;7.082;2023-04-25T13:45:51;6.38;;;2.03;;
52456;SDS011;38369;52.840;7.082;2023-04-25T13:48:17;5.57;;;1.67;;
52456;SDS011;38369;52.840;7.082;2023-04-25T13:50:44;12.07;;;1.45;;
52456;SDS011;38369;52.840;7.082;2023-04-25T13:53:11;5.60;;;1.13;;
52456;SDS011;38369;52.840;7.082;2023-04-25T13:55:37;5.22;;;1.27;;
52456;SDS011;38369;52.840;7.082;2023-04-25T13:58:03;2.95;;;1.23;;
52456;SDS011;38369;52.840;7.082;2023-04-25T14:00:33;5.15;;;1.10;;
52456;SDS011;38369;52.840;7.082;2023-04-25T14:02:59;5.20;;;0.90;;
52456;SDS011;38369;52.840;7.082;2023-04-25T14:05:29;3.85;;;1.50;;
52456;SDS011;38369;52.840;7.082;2023-04-25T14:07:56;4.07;;;1.30;;
52456;SDS011;38369;52.840;7.082;2023-04-25T14:10:22;13.65;;;1.95;;
52456;SDS011;38369;52.840;7.082;2023-04-25T14:12:48;8.30;;;1.80;;
52456;SDS011;38369;52.840;7.082;2023-04-25T14:15:14;8.10;;;1.55;;
52456;SDS011;38369;52.840;7.082;2023-04-25T14:17:40;5.18;;;1.40;;
52456;SDS011;38369;52.840;7.082;2023-04-25T14:20:06;7.43;;;1.45;;
52456;SDS011;38369;52.840;7.082;2023-04-25T14:22:34;5.43;;;1.55;;
52456;SDS011;38369;52.840;7.082;2023-04-25T14:25:00;13.98;;;1.80;;
52456;SDS011;38369;52.840;7.082;2023-04-25T14:27:26;10.88;;;1.92;;
52456;SDS011;38369;52.840;7.082;2023-04-25T14:29:53;9.68;;;1.35;;
52456;SDS011;38369;52.840;7.082;2023-04-25T14:32:19;7.55;;;1.60;;
52456;SDS011;38369;52.840;7.082;2023-04-25T14:34:45;4.93;;;1.50;;
52456;SDS011;38369;52.840;7.082;2023-04-25T14:37:11;5.38;;;1.48;;
52456;SDS011;38369;52.840;7.082;2023-04-25T14:39:37;6.93;;;1.92;;
52456;SDS011;38369;52.840;7.082;2023-04-25T14:42:03;8.65;;;1.70;;
52456;SDS011;38369;52.840;7.082;2023-04-25T14:44:29;11.35;;;1.80;;
52456;SDS011;38369;52.840;7.082;2023-04-25T14:46:55;9.45;;;1.92;;